sensor_id;sensor_type;location;lat;lon;timestamp;pressure;altitude;pressure_sealevel;temperature;humidity
47913;BME280;33676;51.006;17.180;2023-05-08T00:01:57;101322.05;;;4.60;83.44
47913;BME280;33676;51.006;17.180;2023-05-08T00:04:25;101324.95;;;4.57;83.79
47913;BME280;33676;51.006;17.180;2023-05-08T00:10:29;101331.16;;;4.48;84.00
47913;BME280;33676;51.006;17.180;2023-05-08T00:12:57;101335.30;;;4.44;84.18
47913;BME280;33676;51.006;17.180;2023-05-08T00:15:26;101337.30;;;4.41;84.39
47913;BME280;33676;51.006;17.180;2023-05-08T00:17:54;101341.06;;;4.37;84.57
47913;BME280;33676;51.006;17.180;2023-05-08T00:20:23;101340.16;;;4.33;84.78
47913;BME280;33676;51.006;17.180;2023-05-08T00:22:51;101339.59;;;4.30;85.05
47913;BME280;33676;51.006;17.180;2023-05-08T00:25:20;101338.83;;;4.27;85.15
47913;BME280;33676;51.006;17.180;2023-05-08T00:27:48;101338.08;;;4.24;85.25
47913;BME280;33676;51.006;17.180;2023-05-08T00:30:18;101338.88;;;4.21;85.64
47913;BME280;33676;51.006;17.180;2023-05-08T00:32:46;101337.95;;;4.17;85.78
47913;BME280;33676;51.006;17.180;2023-05-08T00:35:18;101340.33;;;4.14;85.77
47913;BME280;33676;51.006;17.180;2023-05-08T00:37:46;101338.52;;;4.12;86.03
47913;BME280;33676;51.006;17.180;2023-05-08T00:40:15;101336.00;;;4.09;86.12
47913;BME280;33676;51.006;17.180;2023-05-08T00:42:43;101335.39;;;4.07;86.11
47913;BME280;33676;51.006;17.180;2023-05-08T00:45:12;101337.05;;;4.04;86.31
47913;BME280;33676;51.006;17.180;2023-05-08T00:47:40;101336.28;;;4.01;86.51
47913;BME280;33676;51.006;17.180;2023-05-08T00:50:09;101337.58;;;3.98;86.68
47913;BME280;33676;51.006;17.180;2023-05-08T00:52:39;101335.27;;;3.95;86.73
47913;BME280;33676;51.006;17.180;2023-05-08T00:55:08;101334.32;;;3.92;86.69
47913;BME280;33676;51.006;17.180;2023-05-08T00:57:37;101334.22;;;3.90;86.96
47913;BME280;33676;51.006;17.180;2023-05-08T01:00:06;101334.80;;;3.88;87.19
47913;BME280;33676;51.006;17.180;2023-05-08T01:02:35;101337.14;;;3.85;87.10
47913;BME280;33676;51.006;17.180;2023-05-08T01:05:05;101338.41;;;3.84;87.35
47913;BME280;33676;51.006;17.180;2023-05-08T01:07:33;101338.82;;;3.82;87.37
47913;BME280;33676;51.006;17.180;2023-05-08T01:10:02;101340.11;;;3.79;87.46
47913;BME280;33676;51.006;17.180;2023-05-08T01:15:34;101336.25;;;3.76;87.95
47913;BME280;33676;51.006;17.180;2023-05-08T01:18:21;101339.08;;;3.74;88.18
47913;BME280;33676;51.006;17.180;2023-05-08T01:21:09;101337.95;;;3.71;88.36
47913;BME280;33676;51.006;17.180;2023-05-08T01:24:23;101340.63;;;3.69;88.28
47913;BME280;33676;51.006;17.180;2023-05-08T01:30:15;101341.02;;;3.63;88.44
47913;BME280;33676;51.006;17.180;2023-05-08T01:32:57;101343.70;;;3.60;88.50
47913;BME280;33676;51.006;17.180;2023-05-08T01:35:36;101344.82;;;3.58;88.47
47913;BME280;33676;51.006;17.180;2023-05-08T01:38:20;101343.71;;;3.54;88.47
47913;BME280;33676;51.006;17.180;2023-05-08T01:41:25;101347.62;;;3.51;88.77
47913;BME280;33676;51.006;17.180;2023-05-08T01:44:12;101346.17;;;3.48;88.63
47913;BME280;33676;51.006;17.180;2023-05-08T01:46:49;101349.55;;;3.45;89.00
47913;BME280;33676;51.006;17.180;2023-05-08T01:49:29;101350.16;;;3.41;88.85
47913;BME280;33676;51.006;17.180;2023-05-08T01:52:31;101351.70;;;3.37;88.63
47913;BME280;33676;51.006;17.180;2023-05-08T01:55:33;101351.30;;;3.32;88.69
47913;BME280;33676;51.006;17.180;2023-05-08T02:01:23;101349.52;;;3.23;88.49
47913;BME280;33676;51.006;17.180;2023-05-08T02:03:54;101352.54;;;3.20;88.38
47913;BME280;33676;51.006;17.180;2023-05-08T02:06:24;101352.80;;;3.17;88.56
47913;BME280;33676;51.006;17.180;2023-05-08T02:08:55;101353.25;;;3.14;88.64
47913;BME280;33676;51.006;17.180;2023-05-08T02:11:25;101353.55;;;3.11;88.88
47913;BME280;33676;51.006;17.180;2023-05-08T02:13:54;101359.81;;;3.09;88.79
47913;BME280;33676;51.006;17.180;2023-05-08T02:16:25;101355.91;;;3.07;89.14
47913;BME280;33676;51.006;17.180;2023-05-08T02:19:03;101359.41;;;3.05;88.98
47913;BME280;33676;51.006;17.180;2023-05-08T02:21:37;101362.59;;;3.03;89.10
47913;BME280;33676;51.006;17.180;2023-05-08T02:24:08;101364.56;;;3.00;89.16
47913;BME280;33676;51.006;17.180;2023-05-08T02:26:37;101368.95;;;2.98;88.93
47913;BME280;33676;51.006;17.180;2023-05-08T02:29:07;101369.71;;;2.95;88.89
47913;BME280;33676;51.006;17.180;2023-05-08T02:31:37;101372.38;;;2.93;89.23
47913;BME280;33676;51.006;17.180;2023-05-08T02:34:07;101375.75;;;2.90;89.08
47913;BME280;33676;51.006;17.180;2023-05-08T02:36:37;101376.34;;;2.87;89.20
47913;BME280;33676;51.006;17.180;2023-05-08T02:39:10;101375.55;;;2.84;89.20
47913;BME280;33676;51.006;17.180;2023-05-08T02:41:41;101379.79;;;2.81;89.23
47913;BME280;33676;51.006;17.180;2023-05-08T02:44:09;101379.17;;;2.78;89.31
47913;BME280;33676;51.006;17.180;2023-05-08T02:47:07;101379.79;;;2.75;89.21
47913;BME280;33676;51.006;17.180;2023-05-08T02:49:55;101382.48;;;2.71;89.00
47913;BME280;33676;51.006;17.180;2023-05-08T02:52:31;101386.75;;;2.67;89.24
47913;BME280;33676;51.006;17.180;2023-05-08T02:55:06;101388.40;;;2.63;89.31
47913;BME280;33676;51.006;17.180;2023-05-08T02:57:59;101389.77;;;2.58;89.39
47913;BME280;33676;51.006;17.180;2023-05-08T03:00:36;101390.95;;;2.53;89.36
47913;BME280;33676;51.006;17.180;2023-05-08T03:05:51;101392.57;;;2.44;89.54
47913;BME280;33676;51.006;17.180;2023-05-08T03:08:32;101390.98;;;2.38;89.42
47913;BME280;33676;51.006;17.180;2023-05-08T03:11:27;101385.62;;;2.32;89.54
47913;BME280;33676;51.006;17.180;2023-05-08T03:13:56;101390.57;;;2.27;89.61
47913;BME280;33676;51.006;17.180;2023-05-08T03:16:30;101392.58;;;2.23;89.89
47913;BME280;33676;51.006;17.180;2023-05-08T03:19:04;101396.45;;;2.20;90.03
47913;BME280;33676;51.006;17.180;2023-05-08T03:21:35;101399.23;;;2.19;90.27
47913;BME280;33676;51.006;17.180;2023-05-08T03:24:05;101400.68;;;2.17;90.47
47913;BME280;33676;51.006;17.180;2023-05-08T03:26:35;101401.06;;;2.15;90.23
47913;BME280;33676;51.006;17.180;2023-05-08T03:29:04;101400.61;;;2.13;90.65
47913;BME280;33676;51.006;17.180;2023-05-08T03:31:34;101399.28;;;2.10;90.67
47913;BME280;33676;51.006;17.180;2023-05-08T03:34:03;101400.52;;;2.09;90.84
47913;BME280;33676;51.006;17.180;2023-05-08T03:36:33;101398.46;;;2.09;91.17
47913;BME280;33676;51.006;17.180;2023-05-08T03:39:01;101396.89;;;2.10;91.61
47913;BME280;33676;51.006;17.180;2023-05-08T03:41:30;101394.42;;;2.12;91.86
47913;BME280;33676;51.006;17.180;2023-05-08T03:44:01;101394.02;;;2.14;92.35
47913;BME280;33676;51.006;17.180;2023-05-08T03:46:32;101398.60;;;2.17;92.43
47913;BME280;33676;51.006;17.180;2023-05-08T03:49:03;101392.85;;;2.19;92.77
47913;BME280;33676;51.006;17.180;2023-05-08T03:51:32;101396.38;;;2.23;92.64
47913;BME280;33676;51.006;17.180;2023-05-08T03:54:04;101399.54;;;2.28;93.31
47913;BME280;33676;51.006;17.180;2023-05-08T03:56:32;101400.12;;;2.31;93.46
47913;BME280;33676;51.006;17.180;2023-05-08T03:59:26;101405.00;;;2.37;93.58
47913;BME280;33676;51.006;17.180;2023-05-08T04:02:51;101408.86;;;2.47;94.26
47913;BME280;33676;51.006;17.180;2023-05-08T04:05:37;101411.30;;;2.53;94.27
47913;BME280;33676;51.006;17.180;2023-05-08T04:08:15;101411.64;;;2.59;94.42
47913;BME280;33676;51.006;17.180;2023-05-08T04:11:09;101413.50;;;2.67;94.72
47913;BME280;33676;51.006;17.180;2023-05-08T04:13:48;101416.39;;;2.75;94.88
47913;BME280;33676;51.006;17.180;2023-05-08T04:16:23;101421.89;;;2.82;95.02
47913;BME280;33676;51.006;17.180;2023-05-08T04:19:01;101420.30;;;2.89;95.28
47913;BME280;33676;51.006;17.180;2023-05-08T04:21:33;101419.55;;;2.98;95.47
47913;BME280;33676;51.006;17.180;2023-05-08T04:24:03;101425.52;;;3.07;95.41
47913;BME280;33676;51.006;17.180;2023-05-08T04:26:35;101423.73;;;3.14;95.78
47913;BME280;33676;51.006;17.180;2023-05-08T04:29:05;101428.83;;;3.22;95.88
47913;BME280;33676;51.006;17.180;2023-05-08T04:31:35;101430.82;;;3.31;95.96
47913;BME280;33676;51.006;17.180;2023-05-08T04:34:04;101429.86;;;3.41;96.24
47913;BME280;33676;51.006;17.180;2023-05-08T04:36:37;101434.80;;;3.49;96.36
47913;BME280;33676;51.006;17.180;2023-05-08T04:39:05;101436.76;;;3.59;96.59
47913;BME280;33676;51.006;17.180;2023-05-08T04:41:34;101439.55;;;3.68;96.71
47913;BME280;33676;51.006;17.180;2023-05-08T04:44:03;101441.75;;;3.81;96.92
47913;BME280;33676;51.006;17.180;2023-05-08T04:46:31;101448.62;;;3.94;97.07
47913;BME280;33676;51.006;17.180;2023-05-08T04:49:00;101454.79;;;4.07;97.24
47913;BME280;33676;51.006;17.180;2023-05-08T04:51:28;101461.83;;;4.18;97.23
47913;BME280;33676;51.006;17.180;2023-05-08T04:53:57;101462.46;;;4.30;97.18
47913;BME280;33676;51.006;17.180;2023-05-08T04:56:26;101462.94;;;4.42;97.16
47913;BME280;33676;51.006;17.180;2023-05-08T04:58:54;101463.60;;;4.53;97.27
47913;BME280;33676;51.006;17.180;2023-05-08T05:01:23;101469.95;;;4.65;97.18
47913;BME280;33676;51.006;17.180;2023-05-08T05:03:52;101469.87;;;4.77;96.96
47913;BME280;33676;51.006;17.180;2023-05-08T05:06:20;101470.52;;;4.88;97.20
47913;BME280;33676;51.006;17.180;2023-05-08T05:08:49;101466.45;;;5.00;97.09
47913;BME280;33676;51.006;17.180;2023-05-08T05:11:17;101472.27;;;5.12;97.02
47913;BME280;33676;51.006;17.180;2023-05-08T05:13:45;101471.46;;;5.24;97.00
47913;BME280;33676;51.006;17.180;2023-05-08T05:16:14;101476.70;;;5.37;96.99
47913;BME280;33676;51.006;17.180;2023-05-08T05:18:42;101473.48;;;5.49;97.02
47913;BME280;33676;51.006;17.180;2023-05-08T05:21:11;101474.93;;;5.61;96.89
47913;BME280;33676;51.006;17.180;2023-05-08T05:23:40;101473.13;;;5.71;96.35
47913;BME280;33676;51.006;17.180;2023-05-08T05:26:09;101474.35;;;5.80;96.19
47913;BME280;33676;51.006;17.180;2023-05-08T05:28:38;101472.87;;;5.86;95.72
47913;BME280;33676;51.006;17.180;2023-05-08T05:31:07;101475.88;;;5.95;95.59
47913;BME280;33676;51.006;17.180;2023-05-08T05:33:37;101476.77;;;6.03;95.30
47913;BME280;33676;51.006;17.180;2023-05-08T05:36:06;101476.59;;;6.12;95.10
47913;BME280;33676;51.006;17.180;2023-05-08T05:38:35;101474.00;;;6.20;94.92
47913;BME280;33676;51.006;17.180;2023-05-08T05:41:04;101479.15;;;6.29;94.92
47913;BME280;33676;51.006;17.180;2023-05-08T05:43:32;101476.33;;;6.39;94.91
47913;BME280;33676;51.006;17.180;2023-05-08T05:46:08;101476.64;;;6.48;94.69
47913;BME280;33676;51.006;17.180;2023-05-08T05:48:36;101477.63;;;6.58;94.56
47913;BME280;33676;51.006;17.180;2023-05-08T05:51:05;101480.39;;;6.67;94.38
47913;BME280;33676;51.006;17.180;2023-05-08T05:53:33;101478.52;;;6.74;93.91
47913;BME280;33676;51.006;17.180;2023-05-08T05:56:02;101476.77;;;6.81;93.88
47913;BME280;33676;51.006;17.180;2023-05-08T05:58:30;101481.09;;;6.90;93.87
47913;BME280;33676;51.006;17.180;2023-05-08T06:00:59;101479.89;;;6.97;93.71
47913;BME280;33676;51.006;17.180;2023-05-08T06:03:28;101486.13;;;7.06;93.45
47913;BME280;33676;51.006;17.180;2023-05-08T06:05:57;101483.00;;;7.14;93.09
47913;BME280;33676;51.006;17.180;2023-05-08T06:08:27;101485.60;;;7.22;92.88
47913;BME280;33676;51.006;17.180;2023-05-08T06:10:55;101488.19;;;7.30;92.80
47913;BME280;33676;51.006;17.180;2023-05-08T06:13:24;101492.52;;;7.38;92.53
47913;BME280;33676;51.006;17.180;2023-05-08T06:15:54;101498.06;;;7.46;92.20
47913;BME280;33676;51.006;17.180;2023-05-08T06:18:26;101496.91;;;7.52;91.89
47913;BME280;33676;51.006;17.180;2023-05-08T06:20:59;101501.27;;;7.59;91.91
47913;BME280;33676;51.006;17.180;2023-05-08T06:23:32;101498.98;;;7.68;91.71
47913;BME280;33676;51.006;17.180;2023-05-08T06:26:01;101500.56;;;7.75;91.40
47913;BME280;33676;51.006;17.180;2023-05-08T06:28:29;101503.11;;;7.83;91.16
47913;BME280;33676;51.006;17.180;2023-05-08T06:30:57;101496.90;;;7.89;90.62
47913;BME280;33676;51.006;17.180;2023-05-08T06:33:26;101497.33;;;7.95;90.70
47913;BME280;33676;51.006;17.180;2023-05-08T06:35:54;101497.02;;;8.02;90.40
47913;BME280;33676;51.006;17.180;2023-05-08T06:38:23;101495.17;;;8.08;90.31
47913;BME280;33676;51.006;17.180;2023-05-08T06:40:52;101492.34;;;8.16;90.27
47913;BME280;33676;51.006;17.180;2023-05-08T06:43:21;101493.13;;;8.24;90.17
47913;BME280;33676;51.006;17.180;2023-05-08T06:45:49;101496.97;;;8.31;90.23
47913;BME280;33676;51.006;17.180;2023-05-08T06:48:20;101502.96;;;8.40;90.00
47913;BME280;33676;51.006;17.180;2023-05-08T06:50:50;101503.97;;;8.49;89.64
47913;BME280;33676;51.006;17.180;2023-05-08T06:53:19;101508.33;;;8.55;89.22
47913;BME280;33676;51.006;17.180;2023-05-08T06:55:47;101508.27;;;8.63;88.99
47913;BME280;33676;51.006;17.180;2023-05-08T06:58:15;101506.50;;;8.71;88.66
47913;BME280;33676;51.006;17.180;2023-05-08T07:00:44;101509.08;;;8.79;88.76
47913;BME280;33676;51.006;17.180;2023-05-08T07:03:13;101511.80;;;8.86;88.42
47913;BME280;33676;51.006;17.180;2023-05-08T07:05:42;101514.14;;;8.95;88.19
47913;BME280;33676;51.006;17.180;2023-05-08T07:08:10;101516.64;;;9.01;87.62
47913;BME280;33676;51.006;17.180;2023-05-08T07:10:38;101518.86;;;9.05;87.17
47913;BME280;33676;51.006;17.180;2023-05-08T07:13:07;101514.95;;;9.10;87.08
47913;BME280;33676;51.006;17.180;2023-05-08T07:15:36;101513.02;;;9.17;86.96
47913;BME280;33676;51.006;17.180;2023-05-08T07:18:06;101514.70;;;9.24;86.96
47913;BME280;33676;51.006;17.180;2023-05-08T07:20:34;101511.23;;;9.31;86.71
47913;BME280;33676;51.006;17.180;2023-05-08T07:23:03;101512.66;;;9.37;86.31
47913;BME280;33676;51.006;17.180;2023-05-08T07:25:31;101515.67;;;9.42;85.95
47913;BME280;33676;51.006;17.180;2023-05-08T07:28:00;101515.37;;;9.48;85.81
47913;BME280;33676;51.006;17.180;2023-05-08T07:30:28;101511.80;;;9.55;85.36
47913;BME280;33676;51.006;17.180;2023-05-08T07:32:57;101513.47;;;9.63;85.29
47913;BME280;33676;51.006;17.180;2023-05-08T07:35:25;101513.31;;;9.73;85.37
47913;BME280;33676;51.006;17.180;2023-05-08T07:37:54;101515.31;;;9.81;85.00
47913;BME280;33676;51.006;17.180;2023-05-08T07:40:22;101518.55;;;9.88;84.92
47913;BME280;33676;51.006;17.180;2023-05-08T07:42:50;101518.73;;;9.98;84.51
47913;BME280;33676;51.006;17.180;2023-05-08T07:45:22;101515.34;;;10.05;84.20
47913;BME280;33676;51.006;17.180;2023-05-08T07:47:57;101512.10;;;10.13;84.04
47913;BME280;33676;51.006;17.180;2023-05-08T07:50:25;101518.54;;;10.20;83.72
47913;BME280;33676;51.006;17.180;2023-05-08T07:52:54;101514.44;;;10.28;83.28
47913;BME280;33676;51.006;17.180;2023-05-08T07:55:23;101516.99;;;10.35;83.15
47913;BME280;33676;51.006;17.180;2023-05-08T07:57:51;101515.34;;;10.43;82.83
47913;BME280;33676;51.006;17.180;2023-05-08T08:00:20;101515.42;;;10.50;83.03
47913;BME280;33676;51.006;17.180;2023-05-08T08:02:49;101512.18;;;10.57;82.63
47913;BME280;33676;51.006;17.180;2023-05-08T08:05:18;101511.00;;;10.63;82.36
47913;BME280;33676;51.006;17.180;2023-05-08T08:07:46;101511.02;;;10.72;82.26
47913;BME280;33676;51.006;17.180;2023-05-08T08:10:15;101513.98;;;10.81;82.18
47913;BME280;33676;51.006;17.180;2023-05-08T08:12:44;101514.21;;;10.88;81.97
47913;BME280;33676;51.006;17.180;2023-05-08T08:15:12;101508.34;;;10.96;81.79
47913;BME280;33676;51.006;17.180;2023-05-08T08:17:41;101507.05;;;11.00;81.37
47913;BME280;33676;51.006;17.180;2023-05-08T08:20:10;101509.64;;;11.09;81.65
47913;BME280;33676;51.006;17.180;2023-05-08T08:22:39;101513.39;;;11.19;81.25
47913;BME280;33676;51.006;17.180;2023-05-08T08:25:08;101507.30;;;11.27;81.01
47913;BME280;33676;51.006;17.180;2023-05-08T08:27:36;101505.52;;;11.36;80.73
47913;BME280;33676;51.006;17.180;2023-05-08T08:30:05;101505.11;;;11.46;80.84
47913;BME280;33676;51.006;17.180;2023-05-08T08:32:45;101502.35;;;11.59;80.73
47913;BME280;33676;51.006;17.180;2023-05-08T08:35:14;101500.27;;;11.69;80.40
47913;BME280;33676;51.006;17.180;2023-05-08T08:37:43;101500.45;;;11.81;80.19
47913;BME280;33676;51.006;17.180;2023-05-08T08:40:12;101505.63;;;11.90;80.00
47913;BME280;33676;51.006;17.180;2023-05-08T08:42:40;101503.97;;;12.00;79.88
47913;BME280;33676;51.006;17.180;2023-05-08T08:45:09;101504.35;;;12.10;79.51
47913;BME280;33676;51.006;17.180;2023-05-08T08:47:39;101495.37;;;12.21;79.21
47913;BME280;33676;51.006;17.180;2023-05-08T08:50:12;101494.33;;;12.35;79.29
47913;BME280;33676;51.006;17.180;2023-05-08T08:55:26;101495.14;;;12.69;78.92
47913;BME280;33676;51.006;17.180;2023-05-08T09:00:57;101500.14;;;13.06;78.55
47913;BME280;33676;51.006;17.180;2023-05-08T09:03:27;101504.17;;;13.22;78.28
47913;BME280;33676;51.006;17.180;2023-05-08T09:05:59;101503.89;;;13.29;77.77
47913;BME280;33676;51.006;17.180;2023-05-08T09:08:30;101508.45;;;13.31;77.11
47913;BME280;33676;51.006;17.180;2023-05-08T09:11:01;101504.52;;;13.47;77.48
47913;BME280;33676;51.006;17.180;2023-05-08T09:13:29;101497.77;;;13.70;77.71
47913;BME280;33676;51.006;17.180;2023-05-08T09:15:58;101491.83;;;14.01;78.20
47913;BME280;33676;51.006;17.180;2023-05-08T09:18:27;101497.25;;;14.28;77.62
47913;BME280;33676;51.006;17.180;2023-05-08T09:20:56;101500.18;;;14.45;77.24
47913;BME280;33676;51.006;17.180;2023-05-08T09:23:25;101498.04;;;14.60;76.56
47913;BME280;33676;51.006;17.180;2023-05-08T09:25:53;101495.06;;;14.71;75.90
47913;BME280;33676;51.006;17.180;2023-05-08T09:28:24;101493.77;;;14.81;75.54
47913;BME280;33676;51.006;17.180;2023-05-08T09:30:55;101490.76;;;14.99;75.52
47913;BME280;33676;51.006;17.180;2023-05-08T09:33:27;101494.00;;;15.25;75.14
47913;BME280;33676;51.006;17.180;2023-05-08T09:35:56;101492.52;;;15.35;74.76
47913;BME280;33676;51.006;17.180;2023-05-08T09:41:12;101491.92;;;15.51;73.59
47913;BME280;33676;51.006;17.180;2023-05-08T09:43:59;101495.23;;;15.76;74.13
47913;BME280;33676;51.006;17.180;2023-05-08T09:46:29;101491.33;;;16.09;73.81
47913;BME280;33676;51.006;17.180;2023-05-08T09:49:00;101495.35;;;16.18;72.96
47913;BME280;33676;51.006;17.180;2023-05-08T09:51:31;101497.14;;;16.22;72.59
47913;BME280;33676;51.006;17.180;2023-05-08T09:53:59;101495.45;;;16.42;72.80
47913;BME280;33676;51.006;17.180;2023-05-08T09:59:05;101489.91;;;16.89;71.99
47913;BME280;33676;51.006;17.180;2023-05-08T10:01:49;101494.47;;;16.96;71.44
47913;BME280;33676;51.006;17.180;2023-05-08T10:04:38;101491.86;;;16.89;70.50
47913;BME280;33676;51.006;17.180;2023-05-08T10:07:07;101489.36;;;16.96;70.32
47913;BME280;33676;51.006;17.180;2023-05-08T10:09:35;101489.30;;;17.21;70.52
47913;BME280;33676;51.006;17.180;2023-05-08T10:12:20;101487.17;;;17.55;70.58
47913;BME280;33676;51.006;17.180;2023-05-08T10:14:49;101477.18;;;17.66;70.03
47913;BME280;33676;51.006;17.180;2023-05-08T10:17:25;101479.96;;;17.77;69.38
47913;BME280;33676;51.006;17.180;2023-05-08T10:19:58;101475.18;;;18.00;69.08
47913;BME280;33676;51.006;17.180;2023-05-08T10:22:31;101480.69;;;18.21;68.77
47913;BME280;33676;51.006;17.180;2023-05-08T10:25:06;101482.88;;;18.46;69.01
47913;BME280;33676;51.006;17.180;2023-05-08T10:27:47;101477.80;;;18.76;69.31
47913;BME280;33676;51.006;17.180;2023-05-08T10:30:24;101478.59;;;19.12;69.40
47913;BME280;33676;51.006;17.180;2023-05-08T10:32:55;101480.66;;;19.44;69.14
47913;BME280;33676;51.006;17.180;2023-05-08T10:35:23;101479.52;;;19.76;68.86
47913;BME280;33676;51.006;17.180;2023-05-08T10:37:52;101471.71;;;19.99;68.38
47913;BME280;33676;51.006;17.180;2023-05-08T10:40:23;101466.13;;;20.14;67.54
47913;BME280;33676;51.006;17.180;2023-05-08T10:42:52;101465.04;;;20.34;67.14
47913;BME280;33676;51.006;17.180;2023-05-08T10:45:21;101463.30;;;20.60;67.17
47913;BME280;33676;51.006;17.180;2023-05-08T10:51:15;101457.20;;;20.98;65.78
47913;BME280;33676;51.006;17.180;2023-05-08T10:54:04;101459.43;;;21.27;65.07
47913;BME280;33676;51.006;17.180;2023-05-08T10:56:37;101453.86;;;21.56;64.49
47913;BME280;33676;51.006;17.180;2023-05-08T10:59:16;101449.05;;;21.89;64.66
47913;BME280;33676;51.006;17.180;2023-05-08T11:01:49;101449.80;;;22.24;64.25
47913;BME280;33676;51.006;17.180;2023-05-08T11:04:22;101447.22;;;22.53;63.73
47913;BME280;33676;51.006;17.180;2023-05-08T11:06:51;101452.34;;;22.81;63.25
47913;BME280;33676;51.006;17.180;2023-05-08T11:09:44;101454.46;;;23.05;62.83
47913;BME280;33676;51.006;17.180;2023-05-08T11:12:24;101452.60;;;23.12;61.26
47913;BME280;33676;51.006;17.180;2023-05-08T11:15:05;101456.58;;;23.24;60.96
47913;BME280;33676;51.006;17.180;2023-05-08T11:17:34;101458.95;;;23.31;60.39
47913;BME280;33676;51.006;17.180;2023-05-08T11:20:04;101447.27;;;23.40;60.04
47913;BME280;33676;51.006;17.180;2023-05-08T11:22:35;101443.46;;;23.65;59.74
47913;BME280;33676;51.006;17.180;2023-05-08T11:25:13;101448.22;;;23.88;59.18
47913;BME280;33676;51.006;17.180;2023-05-08T11:30:25;101444.78;;;24.43;59.09
47913;BME280;33676;51.006;17.180;2023-05-08T11:38:21;101437.11;;;24.83;57.37
47913;BME280;33676;51.006;17.180;2023-05-08T11:40:56;101433.61;;;24.97;56.83
47913;BME280;33676;51.006;17.180;2023-05-08T11:46:20;101427.39;;;25.33;56.03
47913;BME280;33676;51.006;17.180;2023-05-08T11:48:57;101429.98;;;25.50;55.63
47913;BME280;33676;51.006;17.180;2023-05-08T11:51:32;101432.80;;;25.71;55.52
47913;BME280;33676;51.006;17.180;2023-05-08T11:54:01;101432.42;;;25.99;55.61
47913;BME280;33676;51.006;17.180;2023-05-08T11:56:30;101429.91;;;26.30;55.65
47913;BME280;33676;51.006;17.180;2023-05-08T11:59:07;101428.09;;;26.39;54.92
47913;BME280;33676;51.006;17.180;2023-05-08T12:01:38;101424.94;;;26.53;54.26
47913;BME280;33676;51.006;17.180;2023-05-08T12:04:10;101420.67;;;26.76;54.45
47913;BME280;33676;51.006;17.180;2023-05-08T12:06:40;101417.96;;;27.05;54.15
47913;BME280;33676;51.006;17.180;2023-05-08T12:09:17;101412.77;;;27.24;53.72
47913;BME280;33676;51.006;17.180;2023-05-08T12:11:46;101414.42;;;27.41;53.25
47913;BME280;33676;51.006;17.180;2023-05-08T12:14:16;101413.13;;;27.63;53.25
47913;BME280;33676;51.006;17.180;2023-05-08T12:16:45;101413.21;;;27.87;52.64
47913;BME280;33676;51.006;17.180;2023-05-08T12:19:13;101407.25;;;28.06;52.32
47913;BME280;33676;51.006;17.180;2023-05-08T12:21:46;101403.37;;;28.25;52.03
47913;BME280;33676;51.006;17.180;2023-05-08T12:24:18;101405.33;;;28.46;51.65
47913;BME280;33676;51.006;17.180;2023-05-08T12:26:54;101408.67;;;28.56;51.01
47913;BME280;33676;51.006;17.180;2023-05-08T12:29:26;101410.36;;;28.79;51.35
47913;BME280;33676;51.006;17.180;2023-05-08T12:31:54;101409.93;;;29.11;51.12
47913;BME280;33676;51.006;17.180;2023-05-08T12:34:23;101407.30;;;29.31;50.66
47913;BME280;33676;51.006;17.180;2023-05-08T12:37:02;101409.56;;;29.42;50.06
47913;BME280;33676;51.006;17.180;2023-05-08T12:39:34;101407.64;;;29.59;49.72
47913;BME280;33676;51.006;17.180;2023-05-08T12:42:04;101403.98;;;29.83;49.79
47913;BME280;33676;51.006;17.180;2023-05-08T12:44:33;101403.13;;;30.00;49.42
47913;BME280;33676;51.006;17.180;2023-05-08T12:47:03;101401.16;;;30.21;49.38
47913;BME280;33676;51.006;17.180;2023-05-08T12:49:32;101397.35;;;30.52;49.34
47913;BME280;33676;51.006;17.180;2023-05-08T12:52:08;101396.59;;;30.80;49.02
47913;BME280;33676;51.006;17.180;2023-05-08T12:54:46;101396.55;;;30.98;48.58
47913;BME280;33676;51.006;17.180;2023-05-08T12:57:17;101391.87;;;31.15;47.96
47913;BME280;33676;51.006;17.180;2023-05-08T12:59:46;101384.06;;;31.16;47.36
47913;BME280;33676;51.006;17.180;2023-05-08T13:02:21;101381.42;;;31.12;47.23
47913;BME280;33676;51.006;17.180;2023-05-08T13:04:54;101376.85;;;31.21;47.28
47913;BME280;33676;51.006;17.180;2023-05-08T13:07:23;101371.74;;;31.25;46.91
47913;BME280;33676;51.006;17.180;2023-05-08T13:10:00;101369.86;;;31.25;46.41
47913;BME280;33676;51.006;17.180;2023-05-08T13:12:32;101365.88;;;31.30;46.28
47913;BME280;33676;51.006;17.180;2023-05-08T13:15:01;101366.96;;;31.09;45.37
47913;BME280;33676;51.006;17.180;2023-05-08T13:17:31;101362.21;;;30.74;45.14
47913;BME280;33676;51.006;17.180;2023-05-08T13:20:00;101365.23;;;30.66;45.39
47913;BME280;33676;51.006;17.180;2023-05-08T13:22:33;101363.40;;;30.89;45.72
47913;BME280;33676;51.006;17.180;2023-05-08T13:25:01;101363.58;;;31.19;45.84
47913;BME280;33676;51.006;17.180;2023-05-08T13:27:31;101361.85;;;31.47;45.41
47913;BME280;33676;51.006;17.180;2023-05-08T13:29:59;101360.39;;;31.42;45.21
47913;BME280;33676;51.006;17.180;2023-05-08T13:32:27;101357.48;;;31.49;45.05
47913;BME280;33676;51.006;17.180;2023-05-08T13:34:56;101350.48;;;31.71;45.14
47913;BME280;33676;51.006;17.180;2023-05-08T13:37:42;101344.51;;;32.07;45.20
47913;BME280;33676;51.006;17.180;2023-05-08T13:40:12;101344.27;;;32.50;44.77
47913;BME280;33676;51.006;17.180;2023-05-08T13:42:41;101341.63;;;32.87;44.19
47913;BME280;33676;51.006;17.180;2023-05-08T13:45:10;101346.91;;;33.11;44.29
47913;BME280;33676;51.006;17.180;2023-05-08T13:47:42;101345.30;;;33.48;44.61
47913;BME280;33676;51.006;17.180;2023-05-08T13:50:13;101340.42;;;33.98;44.55
47913;BME280;33676;51.006;17.180;2023-05-08T13:52:42;101332.52;;;34.42;44.48